Terminal Aerodrome Forecast
Issued by NWS South Bend, IN

Home | Current Version | Previous Version | Text Only | Print | Product List | Glossary On
Versions: 1 2 3 4 5 6 7 8 9 10 11 12 13 14 15 16 17 18
000
FTUS43 KIWX 051700
TAFSBN
TAF
KSBN 051725Z 0518/0618 07006KT 5SM BR OVC070
      TEMPO 0518/0520 2SM SHRA BR SCT003 BKN015
     FM060900 VRB03KT 1SM BR BKN035
     FM061500 24005KT P6SM BKN035=

USA.gov is the U.S. government's official web portal to all federal, state and local government web resources and services.